< < Back
Terminal Aerodrome Forecast


Current Version              Previous Versions:   1  2  3  4  5  6  7  8  9  

Terminal Aerodrome Forecast

298
FTUS42 KGSP 222330
TAFHKY
TAF
KHKY 222330Z 2300/2324 00000KT P6SM BKN250
     FM230900 35003KT P6SM BKN110
     FM231400 04004KT P6SM OVC026
     FM231500 05005KT 4SM -RA BR OVC017
     FM231800 06006KT 4SM -RA BR OVC007
     FM231900 06007KT 2SM -RA BR OVC006=



Latest METAR

354
SAUS70 KWBC 230558
MTRHKY
METAR KHKY 230553Z AUTO 00000KT 10SM BKN039 05/M03 A3028 RMK AO2 SLP248
T00501028 10072 20033 57012


USA.gov is the U.S. government's official web portal to all federal, state and local government web resources and services.